In Rescue
 
Open Full Screen Window  High Contrast Mode
Wind Gusting 00 knots
04
January 20, 2022 8:18 AM EST
Weather Information
Wind Direction
  360 °
Wind Speed
  04 kt (5 mph)
Wind Gust
  00 kt (0 mph)
Altimeter
30.40 in
Visibility
10 SM
Temperature
-10° C
14° F
Dewpoint
-14° C
F
Humidity
73%
Sky Condition
Clear
VFR

METAR KAXV 201318Z AUTO 36004KT 10SM CLR M10/M14 A3040 RMK AO2

FAA Disclaimer: The data displayed is for advisory purposes only and is not to be used for flight planning or operations.